sensor_id;sensor_type;location;lat;lon;timestamp;pressure;altitude;pressure_sealevel;temperature;humidity
54439;BME280;40347;53.848;27.498;2022-11-20T00:04:00;1013.6;;;-0.2;63
54439;BME280;40347;53.848;27.498;2022-11-20T00:09:00;1013.8;;;-0.1;62.8
54439;BME280;40347;53.848;27.498;2022-11-20T00:14:10;1013.9;;;-0.1;62.7
54439;BME280;40347;53.848;27.498;2022-11-20T00:19:12;1014;;;-0.1;62.6
54439;BME280;40347;53.848;27.498;2022-11-20T00:24:20;1014.1;;;-0.1;62.5
54439;BME280;40347;53.848;27.498;2022-11-20T00:29:12;1014.2;;;-0.1;62.3
54439;BME280;40347;53.848;27.498;2022-11-20T00:34:00;1014.2;;;0;62.2
54439;BME280;40347;53.848;27.498;2022-11-20T00:39:12;1014.3;;;0.1;62.1
54439;BME280;40347;53.848;27.498;2022-11-20T00:44:00;1014.3;;;0;61.7
54439;BME280;40347;53.848;27.498;2022-11-20T00:49:00;1014.3;;;0;61.4
54439;BME280;40347;53.848;27.498;2022-11-20T00:54:00;1014.4;;;0.1;61.1
54439;BME280;40347;53.848;27.498;2022-11-20T00:59:22;1014.4;;;0.1;61
54439;BME280;40347;53.848;27.498;2022-11-20T01:04:00;1014.3;;;0.1;61.2
54439;BME280;40347;53.848;27.498;2022-11-20T01:09:11;1014.2;;;0.1;61.1
54439;BME280;40347;53.848;27.498;2022-11-20T01:14:01;1014.3;;;0.1;60.5
54439;BME280;40347;53.848;27.498;2022-11-20T01:19:24;1014.4;;;0;60.2
54439;BME280;40347;53.848;27.498;2022-11-20T01:24:00;1014.5;;;0;59.9
54439;BME280;40347;53.848;27.498;2022-11-20T01:29:23;1014.4;;;0;60
54439;BME280;40347;53.848;27.498;2022-11-20T01:34:01;1014.4;;;-0.1;59.7
54439;BME280;40347;53.848;27.498;2022-11-20T01:39:01;1014.5;;;-0.2;59.6
54439;BME280;40347;53.848;27.498;2022-11-20T01:44:00;1014.6;;;-0.2;59.7
54439;BME280;40347;53.848;27.498;2022-11-20T01:49:11;1014.7;;;-0.2;60.1
54439;BME280;40347;53.848;27.498;2022-11-20T01:54:23;1014.6;;;-0.2;60.3
54439;BME280;40347;53.848;27.498;2022-11-20T01:59:01;1014.6;;;-0.2;60.2
54439;BME280;40347;53.848;27.498;2022-11-20T02:04:00;1014.5;;;-0.2;60
54439;BME280;40347;53.848;27.498;2022-11-20T02:09:00;1014.5;;;-0.2;60
54439;BME280;40347;53.848;27.498;2022-11-20T02:14:00;1014.6;;;-0.1;59.8
54439;BME280;40347;53.848;27.498;2022-11-20T02:19:01;1014.5;;;-0.2;59.7
54439;BME280;40347;53.848;27.498;2022-11-20T02:24:01;1014.6;;;-0.2;59.5
54439;BME280;40347;53.848;27.498;2022-11-20T02:29:08;1014.7;;;-0.2;59.4
54439;BME280;40347;53.848;27.498;2022-11-20T02:34:48;1014.7;;;-0.2;59.3
54439;BME280;40347;53.848;27.498;2022-11-20T02:39:00;1014.7;;;-0.2;59.2
54439;BME280;40347;53.848;27.498;2022-11-20T02:44:00;1014.7;;;-0.2;59.1
54439;BME280;40347;53.848;27.498;2022-11-20T02:49:01;1014.6;;;-0.2;58.9
54439;BME280;40347;53.848;27.498;2022-11-20T02:54:00;1014.6;;;-0.3;59
54439;BME280;40347;53.848;27.498;2022-11-20T02:59:20;1014.6;;;-0.3;59.2
54439;BME280;40347;53.848;27.498;2022-11-20T03:04:20;1014.6;;;-0.3;59.2
54439;BME280;40347;53.848;27.498;2022-11-20T03:09:01;1014.7;;;-0.3;59.3
54439;BME280;40347;53.848;27.498;2022-11-20T03:14:12;1014.7;;;-0.3;59.4
54439;BME280;40347;53.848;27.498;2022-11-20T03:19:03;1014.8;;;-0.3;59.3
54439;BME280;40347;53.848;27.498;2022-11-20T03:24:24;1014.8;;;-0.4;59.3
54439;BME280;40347;53.848;27.498;2022-11-20T03:29:02;1014.8;;;-0.4;59.3
54439;BME280;40347;53.848;27.498;2022-11-20T03:34:00;1014.9;;;-0.4;59.3
54439;BME280;40347;53.848;27.498;2022-11-20T03:39:00;1014.9;;;-0.3;59.3
54439;BME280;40347;53.848;27.498;2022-11-20T03:44:10;1014.8;;;-0.3;59.1
54439;BME280;40347;53.848;27.498;2022-11-20T03:49:00;1014.9;;;-0.4;58.7
54439;BME280;40347;53.848;27.498;2022-11-20T03:54:01;1014.9;;;-0.5;58.8
54439;BME280;40347;53.848;27.498;2022-11-20T03:59:00;1014.9;;;-0.4;58.8
54439;BME280;40347;53.848;27.498;2022-11-20T04:04:00;1014.9;;;-0.4;58.6
54439;BME280;40347;53.848;27.498;2022-11-20T04:09:10;1015;;;-0.5;58.8
54439;BME280;40347;53.848;27.498;2022-11-20T04:14:13;1015;;;-0.6;58.9
54439;BME280;40347;53.848;27.498;2022-11-20T04:19:01;1015;;;-0.6;58.9
54439;BME280;40347;53.848;27.498;2022-11-20T04:24:08;1015;;;-0.6;59
54439;BME280;40347;53.848;27.498;2022-11-20T04:29:22;1015;;;-0.5;59
54439;BME280;40347;53.848;27.498;2022-11-20T04:34:34;1015.1;;;-0.6;59
54439;BME280;40347;53.848;27.498;2022-11-20T04:39:22;1015;;;-0.6;58.8
54439;BME280;40347;53.848;27.498;2022-11-20T04:44:01;1014.9;;;-0.6;58.5
54439;BME280;40347;53.848;27.498;2022-11-20T04:49:08;1015;;;-0.6;58.6
54439;BME280;40347;53.848;27.498;2022-11-20T04:54:18;1015;;;-0.6;58.5
54439;BME280;40347;53.848;27.498;2022-11-20T04:59:24;1015;;;-0.6;58.4
54439;BME280;40347;53.848;27.498;2022-11-20T05:04:00;1015.1;;;-0.6;58.7
54439;BME280;40347;53.848;27.498;2022-11-20T05:09:00;1015.2;;;-0.7;58.7
54439;BME280;40347;53.848;27.498;2022-11-20T05:14:08;1015.2;;;-0.7;58.7
54439;BME280;40347;53.848;27.498;2022-11-20T05:19:38;1015.2;;;-0.7;58.8
54439;BME280;40347;53.848;27.498;2022-11-20T05:24:00;1015.3;;;-0.7;58.8
54439;BME280;40347;53.848;27.498;2022-11-20T05:29:12;1015.3;;;-0.7;58.8
54439;BME280;40347;53.848;27.498;2022-11-20T05:34:10;1015.3;;;-0.7;58.8
54439;BME280;40347;53.848;27.498;2022-11-20T05:39:08;1015.4;;;-0.7;58.9
54439;BME280;40347;53.848;27.498;2022-11-20T05:44:00;1015.3;;;-0.8;59
54439;BME280;40347;53.848;27.498;2022-11-20T05:49:10;1015.3;;;-0.8;59.1
54439;BME280;40347;53.848;27.498;2022-11-20T05:54:32;1015.3;;;-0.8;59.2
54439;BME280;40347;53.848;27.498;2022-11-20T05:59:08;1015.4;;;-0.7;58.9
54439;BME280;40347;53.848;27.498;2022-11-20T06:04:08;1015.3;;;-0.7;58.9
54439;BME280;40347;53.848;27.498;2022-11-20T06:09:00;1015.3;;;-0.7;59
54439;BME280;40347;53.848;27.498;2022-11-20T06:14:00;1015.2;;;-0.7;58.8
54439;BME280;40347;53.848;27.498;2022-11-20T06:19:12;1015.4;;;-0.6;58.7
54439;BME280;40347;53.848;27.498;2022-11-20T06:24:00;1015.4;;;-0.6;58.8
54439;BME280;40347;53.848;27.498;2022-11-20T06:29:00;1015.4;;;-0.6;58.8
54439;BME280;40347;53.848;27.498;2022-11-20T06:34:24;1015.5;;;-0.6;58.5
54439;BME280;40347;53.848;27.498;2022-11-20T06:39:00;1015.5;;;-0.6;58.5
54439;BME280;40347;53.848;27.498;2022-11-20T06:44:10;1015.6;;;-0.5;58.6
54439;BME280;40347;53.848;27.498;2022-11-20T06:49:26;1015.6;;;-0.5;58.5
54439;BME280;40347;53.848;27.498;2022-11-20T06:54:00;1015.7;;;-0.5;58.6
54439;BME280;40347;53.848;27.498;2022-11-20T06:59:10;1015.6;;;-0.5;58.6
54439;BME280;40347;53.848;27.498;2022-11-20T07:04:36;1015.6;;;-0.4;58.5
54439;BME280;40347;53.848;27.498;2022-11-20T07:09:00;1015.6;;;-0.3;58.6
54439;BME280;40347;53.848;27.498;2022-11-20T07:14:20;1015.6;;;-0.2;58.6
54439;BME280;40347;53.848;27.498;2022-11-20T07:19:22;1015.5;;;-0.2;58.7
54439;BME280;40347;53.848;27.498;2022-11-20T07:24:00;1015.6;;;-0.2;58.7
54439;BME280;40347;53.848;27.498;2022-11-20T07:29:12;1015.7;;;-0.2;58.8
54439;BME280;40347;53.848;27.498;2022-11-20T07:34:00;1015.6;;;0;58.6
54439;BME280;40347;53.848;27.498;2022-11-20T07:39:00;1015.6;;;0;58.4
54439;BME280;40347;53.848;27.498;2022-11-20T07:44:10;1015.5;;;0;58.1
54439;BME280;40347;53.848;27.498;2022-11-20T07:49:00;1015.6;;;0.1;57.8
54439;BME280;40347;53.848;27.498;2022-11-20T07:54:00;1015.6;;;0.2;57.6
54439;BME280;40347;53.848;27.498;2022-11-20T07:59:20;1015.6;;;0.3;57.3
54439;BME280;40347;53.848;27.498;2022-11-20T08:04:00;1015.6;;;0.4;57.1
54439;BME280;40347;53.848;27.498;2022-11-20T08:09:00;1015.6;;;0.5;56.8
54439;BME280;40347;53.848;27.498;2022-11-20T08:14:01;1015.5;;;0.5;56.8
54439;BME280;40347;53.848;27.498;2022-11-20T08:19:00;1015.4;;;0.6;56.8
54439;BME280;40347;53.848;27.498;2022-11-20T08:24:12;1015.4;;;0.7;56.7
54439;BME280;40347;53.848;27.498;2022-11-20T08:29:10;1015.4;;;0.7;56.5
54439;BME280;40347;53.848;27.498;2022-11-20T08:34:10;1015.5;;;0.7;56.7
54439;BME280;40347;53.848;27.498;2022-11-20T08:39:11;1015.5;;;0.7;56.6
54439;BME280;40347;53.848;27.498;2022-11-20T08:44:01;1015.5;;;0.7;56.2
54439;BME280;40347;53.848;27.498;2022-11-20T08:49:22;1015.4;;;0.8;56.3
54439;BME280;40347;53.848;27.498;2022-11-20T08:54:22;1015.4;;;1;56.3
54439;BME280;40347;53.848;27.498;2022-11-20T08:59:10;1015.3;;;1.1;56.2
54439;BME280;40347;53.848;27.498;2022-11-20T09:04:10;1015.4;;;1.2;55.8
54439;BME280;40347;53.848;27.498;2022-11-20T09:09:16;1015.3;;;1.3;55.7
54439;BME280;40347;53.848;27.498;2022-11-20T09:14:00;1015.3;;;1.3;55.7
54439;BME280;40347;53.848;27.498;2022-11-20T09:19:10;1015.2;;;1.4;55.5
54439;BME280;40347;53.848;27.498;2022-11-20T09:24:00;1015.2;;;1.4;55
54439;BME280;40347;53.848;27.498;2022-11-20T09:29:20;1015.2;;;1.4;55.2
54439;BME280;40347;53.848;27.498;2022-11-20T09:34:08;1015.1;;;1.5;55.1
54439;BME280;40347;53.848;27.498;2022-11-20T09:39:00;1015.1;;;1.7;54.8
54439;BME280;40347;53.848;27.498;2022-11-20T09:44:02;1015.1;;;1.7;54.5
54439;BME280;40347;53.848;27.498;2022-11-20T09:49:03;1015;;;1.8;54.3
54439;BME280;40347;53.848;27.498;2022-11-20T09:54:12;1015;;;1.8;53.7
54439;BME280;40347;53.848;27.498;2022-11-20T09:59:02;1015;;;1.8;53.8
54439;BME280;40347;53.848;27.498;2022-11-20T10:04:01;1015;;;1.7;53.3
54439;BME280;40347;53.848;27.498;2022-11-20T10:09:03;1015;;;1.9;53.5
54439;BME280;40347;53.848;27.498;2022-11-20T10:14:13;1015;;;1.9;53.6
54439;BME280;40347;53.848;27.498;2022-11-20T10:19:12;1014.9;;;2;53.1
54439;BME280;40347;53.848;27.498;2022-11-20T10:24:18;1014.9;;;1.9;53.7
54439;BME280;40347;53.848;27.498;2022-11-20T10:29:11;1014.9;;;1.8;53.7
54439;BME280;40347;53.848;27.498;2022-11-20T10:34:14;1014.9;;;1.7;53.6
54439;BME280;40347;53.848;27.498;2022-11-20T10:39:14;1014.9;;;1.8;53.7
54439;BME280;40347;53.848;27.498;2022-11-20T10:44:02;1014.8;;;1.7;53.3
54439;BME280;40347;53.848;27.498;2022-11-20T10:49:20;1014.7;;;1.7;53.1
54439;BME280;40347;53.848;27.498;2022-11-20T10:54:04;1014.8;;;1.6;53.6
54439;BME280;40347;53.848;27.498;2022-11-20T10:59:40;1014.8;;;1.5;53.8
54439;BME280;40347;53.848;27.498;2022-11-20T11:04:00;1014.8;;;1.4;53.6
54439;BME280;40347;53.848;27.498;2022-11-20T11:09:01;1014.8;;;1.3;53.9
54439;BME280;40347;53.848;27.498;2022-11-20T11:14:11;1014.8;;;1.2;54.2
54439;BME280;40347;53.848;27.498;2022-11-20T11:19:11;1014.8;;;1.1;54.2
54439;BME280;40347;53.848;27.498;2022-11-20T11:24:19;1014.8;;;1;54.3
54439;BME280;40347;53.848;27.498;2022-11-20T11:29:01;1014.8;;;1;54.4
54439;BME280;40347;53.848;27.498;2022-11-20T11:34:11;1014.9;;;1;54.3
54439;BME280;40347;53.848;27.498;2022-11-20T11:39:11;1014.9;;;1;54.2
54439;BME280;40347;53.848;27.498;2022-11-20T11:44:15;1014.9;;;1.1;54.3
54439;BME280;40347;53.848;27.498;2022-11-20T11:49:01;1015;;;1.1;54.2
54439;BME280;40347;53.848;27.498;2022-11-20T11:54:00;1015.1;;;1.1;54.1
54439;BME280;40347;53.848;27.498;2022-11-20T11:59:00;1015.1;;;1.1;54
54439;BME280;40347;53.848;27.498;2022-11-20T12:04:02;1015;;;1.1;54.1
54439;BME280;40347;53.848;27.498;2022-11-20T12:09:23;1015;;;1.2;54.1
54439;BME280;40347;53.848;27.498;2022-11-20T12:14:25;1015;;;1.3;53.9
54439;BME280;40347;53.848;27.498;2022-11-20T12:19:00;1015;;;1.2;53.7
54439;BME280;40347;53.848;27.498;2022-11-20T12:24:25;1015;;;1.3;53.8
54439;BME280;40347;53.848;27.498;2022-11-20T12:29:12;1014.9;;;1.3;53.8
54439;BME280;40347;53.848;27.498;2022-11-20T12:34:13;1014.8;;;1.3;53.9
54439;BME280;40347;53.848;27.498;2022-11-20T12:39:21;1014.8;;;1.1;54.3
54439;BME280;40347;53.848;27.498;2022-11-20T12:44:24;1014.6;;;0.9;54.2
54439;BME280;40347;53.848;27.498;2022-11-20T12:49:02;1014.6;;;0.8;54.2
54439;BME280;40347;53.848;27.498;2022-11-20T12:54:17;1014.5;;;0.7;54.5
54439;BME280;40347;53.848;27.498;2022-11-20T12:59:03;1014.4;;;0.8;54.5
54439;BME280;40347;53.848;27.498;2022-11-20T13:04:01;1014.4;;;0.8;54.5
54439;BME280;40347;53.848;27.498;2022-11-20T13:09:00;1014.4;;;0.8;54.5
54439;BME280;40347;53.848;27.498;2022-11-20T13:14:11;1014.4;;;0.8;54.6
54439;BME280;40347;53.848;27.498;2022-11-20T13:19:01;1014.4;;;0.8;54.4
54439;BME280;40347;53.848;27.498;2022-11-20T13:24:03;1014.4;;;0.7;54.5
54439;BME280;40347;53.848;27.498;2022-11-20T13:29:02;1014.4;;;0.6;54.6
54439;BME280;40347;53.848;27.498;2022-11-20T13:34:01;1014.4;;;0.5;54.9
54439;BME280;40347;53.848;27.498;2022-11-20T13:39:33;1014.4;;;0.5;55
54439;BME280;40347;53.848;27.498;2022-11-20T13:44:23;1014.4;;;0.5;55
54439;BME280;40347;53.848;27.498;2022-11-20T13:49:15;1014.3;;;0.5;55
54439;BME280;40347;53.848;27.498;2022-11-20T13:54:04;1014.3;;;0.5;54.9
54439;BME280;40347;53.848;27.498;2022-11-20T13:59:02;1014.2;;;0.5;55
54439;BME280;40347;53.848;27.498;2022-11-20T14:04:05;1014.2;;;0.4;55.2
54439;BME280;40347;53.848;27.498;2022-11-20T14:09:24;1014.2;;;0.3;55.4
54439;BME280;40347;53.848;27.498;2022-11-20T14:14:13;1014.2;;;0.4;55.4
54439;BME280;40347;53.848;27.498;2022-11-20T14:19:27;1014.1;;;0.4;55.4
54439;BME280;40347;53.848;27.498;2022-11-20T14:24:21;1014.1;;;0.4;55.3
54439;BME280;40347;53.848;27.498;2022-11-20T14:29:00;1014;;;0.3;55.4
54439;BME280;40347;53.848;27.498;2022-11-20T14:34:01;1014;;;0.1;55.7
54439;BME280;40347;53.848;27.498;2022-11-20T14:39:00;1013.9;;;0.1;55.8
54439;BME280;40347;53.848;27.498;2022-11-20T14:44:00;1013.8;;;0;55.9
54439;BME280;40347;53.848;27.498;2022-11-20T14:49:01;1013.7;;;0;56.1
54439;BME280;40347;53.848;27.498;2022-11-20T14:54:08;1013.7;;;-0.2;56.1
54439;BME280;40347;53.848;27.498;2022-11-20T14:59:22;1013.7;;;-0.3;56.2
54439;BME280;40347;53.848;27.498;2022-11-20T15:04:20;1013.6;;;-0.4;56.4
54439;BME280;40347;53.848;27.498;2022-11-20T15:09:02;1013.6;;;-0.6;56.6
54439;BME280;40347;53.848;27.498;2022-11-20T15:14:02;1013.5;;;-0.7;56.9
54439;BME280;40347;53.848;27.498;2022-11-20T15:19:08;1013.4;;;-0.7;57
54439;BME280;40347;53.848;27.498;2022-11-20T15:24:00;1013.4;;;-0.9;57.2
54439;BME280;40347;53.848;27.498;2022-11-20T15:29:24;1013.4;;;-1;57.3
54439;BME280;40347;53.848;27.498;2022-11-20T15:34:00;1013.4;;;-1.1;57.4
54439;BME280;40347;53.848;27.498;2022-11-20T15:39:28;1013.4;;;-1.3;57.5
54439;BME280;40347;53.848;27.498;2022-11-20T15:44:00;1013.3;;;-1.4;57.6
54439;BME280;40347;53.848;27.498;2022-11-20T15:49:32;1013.3;;;-1.5;57.9
54439;BME280;40347;53.848;27.498;2022-11-20T15:54:13;1013.4;;;-1.5;58.2
54439;BME280;40347;53.848;27.498;2022-11-20T15:59:01;1013.4;;;-1.3;58.1
54439;BME280;40347;53.848;27.498;2022-11-20T16:04:18;1013.4;;;-1.1;57.9
54439;BME280;40347;53.848;27.498;2022-11-20T16:09:01;1013.4;;;-1;57.9
54439;BME280;40347;53.848;27.498;2022-11-20T16:14:10;1013.3;;;-0.9;57.8
54439;BME280;40347;53.848;27.498;2022-11-20T16:19:22;1013.3;;;-0.9;57.7
54439;BME280;40347;53.848;27.498;2022-11-20T16:24:01;1013.2;;;-0.8;57.9
54439;BME280;40347;53.848;27.498;2022-11-20T16:29:01;1013.1;;;-0.7;57.8
54439;BME280;40347;53.848;27.498;2022-11-20T16:34:01;1013;;;-0.6;57.6
54439;BME280;40347;53.848;27.498;2022-11-20T16:39:20;1013;;;-0.6;57.7
54439;BME280;40347;53.848;27.498;2022-11-20T16:44:01;1013;;;-0.6;57.9
54439;BME280;40347;53.848;27.498;2022-11-20T16:49:02;1012.9;;;-0.5;58
54439;BME280;40347;53.848;27.498;2022-11-20T16:54:09;1012.9;;;-0.5;58
54439;BME280;40347;53.848;27.498;2022-11-20T16:59:08;1012.8;;;-0.5;58.1
54439;BME280;40347;53.848;27.498;2022-11-20T17:04:01;1012.7;;;-0.4;58.1
54439;BME280;40347;53.848;27.498;2022-11-20T17:09:09;1012.7;;;-0.4;58
54439;BME280;40347;53.848;27.498;2022-11-20T17:14:00;1012.8;;;-0.4;57.9
54439;BME280;40347;53.848;27.498;2022-11-20T17:19:01;1012.8;;;-0.5;57.9
54439;BME280;40347;53.848;27.498;2022-11-20T17:24:09;1012.8;;;-0.5;57.9
54439;BME280;40347;53.848;27.498;2022-11-20T17:29:20;1012.8;;;-0.5;58
54439;BME280;40347;53.848;27.498;2022-11-20T17:34:11;1012.7;;;-0.4;58.1
54439;BME280;40347;53.848;27.498;2022-11-20T17:39:00;1012.7;;;-0.4;58.2
54439;BME280;40347;53.848;27.498;2022-11-20T17:44:09;1012.8;;;-0.4;58.4
54439;BME280;40347;53.848;27.498;2022-11-20T17:49:01;1012.7;;;-0.2;58.4
54439;BME280;40347;53.848;27.498;2022-11-20T17:54:20;1012.6;;;-0.3;58.3
54439;BME280;40347;53.848;27.498;2022-11-20T17:59:02;1012.6;;;-0.4;58.4
54439;BME280;40347;53.848;27.498;2022-11-20T18:04:11;1012.5;;;-0.5;58.7
54439;BME280;40347;53.848;27.498;2022-11-20T18:09:20;1012.5;;;-0.5;58.9
54439;BME280;40347;53.848;27.498;2022-11-20T18:14:11;1012.5;;;-0.5;59.1
54439;BME280;40347;53.848;27.498;2022-11-20T18:19:45;1012.4;;;-0.5;59.1
54439;BME280;40347;53.848;27.498;2022-11-20T18:24:08;1012.4;;;-0.5;59.1
54439;BME280;40347;53.848;27.498;2022-11-20T18:29:11;1012.4;;;-0.5;59.2
54439;BME280;40347;53.848;27.498;2022-11-20T18:34:08;1012.4;;;-0.5;59.7
54439;BME280;40347;53.848;27.498;2022-11-20T18:39:09;1012.4;;;-0.4;59.9
54439;BME280;40347;53.848;27.498;2022-11-20T18:44:02;1012.4;;;-0.4;60.1
54439;BME280;40347;53.848;27.498;2022-11-20T18:49:01;1012.4;;;-0.4;60.1
54439;BME280;40347;53.848;27.498;2022-11-20T18:54:01;1012.4;;;-0.4;60.4
54439;BME280;40347;53.848;27.498;2022-11-20T18:59:01;1012.3;;;-0.4;60.4
54439;BME280;40347;53.848;27.498;2022-11-20T19:04:04;1012.3;;;-0.5;60.8
54439;BME280;40347;53.848;27.498;2022-11-20T19:09:11;1012.4;;;-0.5;61.3
54439;BME280;40347;53.848;27.498;2022-11-20T19:14:10;1012.4;;;-0.6;61.6
54439;BME280;40347;53.848;27.498;2022-11-20T19:19:10;1012.3;;;-0.6;61.6
54439;BME280;40347;53.848;27.498;2022-11-20T19:24:01;1012.2;;;-0.6;61.7
54439;BME280;40347;53.848;27.498;2022-11-20T19:29:01;1012.2;;;-0.6;61.9
54439;BME280;40347;53.848;27.498;2022-11-20T19:34:08;1012.2;;;-0.6;62
54439;BME280;40347;53.848;27.498;2022-11-20T19:39:01;1012.2;;;-0.8;62.5
54439;BME280;40347;53.848;27.498;2022-11-20T19:44:01;1012.2;;;-0.8;63
54439;BME280;40347;53.848;27.498;2022-11-20T19:49:01;1012.2;;;-0.8;63.2
54439;BME280;40347;53.848;27.498;2022-11-20T19:54:20;1012.1;;;-0.9;63.5
54439;BME280;40347;53.848;27.498;2022-11-20T19:59:01;1012;;;-0.9;63.7
54439;BME280;40347;53.848;27.498;2022-11-20T20:04:10;1011.9;;;-1.1;63.9
54439;BME280;40347;53.848;27.498;2022-11-20T20:09:09;1011.9;;;-1.1;64.2
54439;BME280;40347;53.848;27.498;2022-11-20T20:14:18;1011.8;;;-1.1;64.2
54439;BME280;40347;53.848;27.498;2022-11-20T20:19:32;1011.6;;;-1.2;64.4
54439;BME280;40347;53.848;27.498;2022-11-20T20:24:01;1011.6;;;-1.2;64.8
54439;BME280;40347;53.848;27.498;2022-11-20T20:29:01;1011.6;;;-1.2;64.6
54439;BME280;40347;53.848;27.498;2022-11-20T20:34:10;1011.6;;;-1.2;64.4
54439;BME280;40347;53.848;27.498;2022-11-20T20:39:08;1011.6;;;-1.3;64.8
54439;BME280;40347;53.848;27.498;2022-11-20T20:44:01;1011.6;;;-1.4;65.1
54439;BME280;40347;53.848;27.498;2022-11-20T20:49:20;1011.6;;;-1.4;65.2
54439;BME280;40347;53.848;27.498;2022-11-20T20:54:01;1011.6;;;-1.3;65
54439;BME280;40347;53.848;27.498;2022-11-20T20:59:24;1011.5;;;-1.3;65
54439;BME280;40347;53.848;27.498;2022-11-20T21:04:01;1011.4;;;-1.4;65.2
54439;BME280;40347;53.848;27.498;2022-11-20T21:09:01;1011.5;;;-1.5;65.5
54439;BME280;40347;53.848;27.498;2022-11-20T21:14:13;1011.6;;;-1.4;65.7
54439;BME280;40347;53.848;27.498;2022-11-20T21:19:11;1011.6;;;-1.4;65.4
54439;BME280;40347;53.848;27.498;2022-11-20T21:24:01;1011.6;;;-1.4;65.6
54439;BME280;40347;53.848;27.498;2022-11-20T21:29:08;1011.5;;;-1.4;65.6
54439;BME280;40347;53.848;27.498;2022-11-20T21:34:01;1011.5;;;-1.4;65.6
54439;BME280;40347;53.848;27.498;2022-11-20T21:39:01;1011.5;;;-1.4;65.8
54439;BME280;40347;53.848;27.498;2022-11-20T21:44:11;1011.6;;;-1.4;66.1
54439;BME280;40347;53.848;27.498;2022-11-20T21:49:02;1011.6;;;-1.3;66
54439;BME280;40347;53.848;27.498;2022-11-20T21:54:01;1011.6;;;-1.2;65.8
54439;BME280;40347;53.848;27.498;2022-11-20T21:59:01;1011.5;;;-1.1;65.7
54439;BME280;40347;53.848;27.498;2022-11-20T22:04:01;1011.4;;;-1.1;65.5
54439;BME280;40347;53.848;27.498;2022-11-20T22:09:01;1011.4;;;-1.1;65.4
54439;BME280;40347;53.848;27.498;2022-11-20T22:14:01;1011.3;;;-1.1;65.2
54439;BME280;40347;53.848;27.498;2022-11-20T22:19:09;1011.2;;;-1.1;65.2
54439;BME280;40347;53.848;27.498;2022-11-20T22:24:01;1011.1;;;-1.2;65.4
54439;BME280;40347;53.848;27.498;2022-11-20T22:29:12;1011.1;;;-1.2;65.6
54439;BME280;40347;53.848;27.498;2022-11-20T22:34:01;1010.9;;;-1.3;65.6
54439;BME280;40347;53.848;27.498;2022-11-20T22:39:11;1010.9;;;-1.4;65.6
54439;BME280;40347;53.848;27.498;2022-11-20T22:44:11;1010.9;;;-1.5;65.8
54439;BME280;40347;53.848;27.498;2022-11-20T22:49:09;1011;;;-1.5;65.8
54439;BME280;40347;53.848;27.498;2022-11-20T22:54:01;1011;;;-1.5;65.8
54439;BME280;40347;53.848;27.498;2022-11-20T22:59:01;1011;;;-1.5;65.7
54439;BME280;40347;53.848;27.498;2022-11-20T23:04:11;1010.9;;;-1.5;65.7
54439;BME280;40347;53.848;27.498;2022-11-20T23:09:09;1010.9;;;-1.5;65.7
54439;BME280;40347;53.848;27.498;2022-11-20T23:14:11;1010.8;;;-1.6;65.7
54439;BME280;40347;53.848;27.498;2022-11-20T23:19:02;1010.7;;;-1.5;65.8
54439;BME280;40347;53.848;27.498;2022-11-20T23:24:01;1010.6;;;-1.5;65.8
54439;BME280;40347;53.848;27.498;2022-11-20T23:29:09;1010.5;;;-1.5;65.7
54439;BME280;40347;53.848;27.498;2022-11-20T23:34:01;1010.6;;;-1.5;65.6
54439;BME280;40347;53.848;27.498;2022-11-20T23:39:01;1010.6;;;-1.5;65.7
54439;BME280;40347;53.848;27.498;2022-11-20T23:44:11;1010.6;;;-1.4;65.7
54439;BME280;40347;53.848;27.498;2022-11-20T23:49:11;1010.4;;;-1.3;65.6
54439;BME280;40347;53.848;27.498;2022-11-20T23:54:01;1010.3;;;-1.3;65.4
54439;BME280;40347;53.848;27.498;2022-11-20T23:59:11;1010.3;;;-1.4;65.4
